Time;durP1;ratioP1;P1;durP2;ratioP2;P2;SDS_P1;SDS_P2;PMS_P1;PMS_P2;Temp;Humidity;BMP_temperature;BMP_pressure;BME280_temperature;BME280_humidity;BME280_pressure;Samples;Min_cycle;Max_cycle;Signal;HPM_P1;HPM_P2
2021/08/13 00:02:50;;;;;;;;;18.00;17.25;;;;;21.83;50.28;99434.16;6041139;28;96862;-62
2021/08/13 00:05:54;;;;;;;;;19.60;18.00;;;;;21.79;49.92;99424.03;6042633;28;97536;-59
2021/08/13 00:08:59;;;;;;;;;16.00;16.00;;;;;21.49;49.96;99381.09;6042955;28;96761;-60
2021/08/13 00:12:02;;;;;;;;;15.00;14.00;;;;;21.53;50.40;99396.72;6042439;28;97005;-60
2021/08/13 00:15:08;;;;;;;;;17.00;16.00;;;;;21.71;50.00;99417.19;6040444;28;97064;-61
2021/08/13 00:18:12;;;;;;;;;19.00;16.00;;;;;21.69;50.45;99415.84;6042651;28;96763;-59
2021/08/13 00:21:15;;;;;;;;;18.20;18.00;;;;;21.57;50.49;99435.38;6042064;28;97485;-58
2021/08/13 00:24:21;;;;;;;;;16.60;15.00;;;;;21.53;50.48;99435.13;6042337;28;97441;-59
2021/08/13 00:27:29;;;;;;;;;17.00;16.00;;;;;21.58;50.69;99439.75;6042889;28;97521;-60
2021/08/13 00:30:33;;;;;;;;;18.00;17.50;;;;;21.60;50.79;99437.53;6041868;28;97634;-58
2021/08/13 00:33:37;;;;;;;;;14.20;14.20;;;;;21.59;50.97;99439.50;6043056;28;96762;-61
2021/08/13 00:36:40;;;;;;;;;18.25;17.00;;;;;21.57;50.85;99443.59;6033902;28;96569;-60
2021/08/13 00:39:45;;;;;;;;;19.00;18.60;;;;;21.51;50.89;99451.03;6037205;28;97577;-60
2021/08/13 00:42:49;;;;;;;;;19.20;17.60;;;;;21.45;50.58;99443.13;6040694;28;97334;-60
2021/08/13 00:45:53;;;;;;;;;17.60;16.80;;;;;21.41;50.67;99444.75;6041448;28;96913;-58
2021/08/13 00:49:08;;;;;;;;;19.60;16.00;;;;;21.39;51.09;99445.03;6041131;28;97169;-58
2021/08/13 00:52:16;;;;;;;;;17.40;15.00;;;;;21.35;51.03;99437.66;6025639;28;96787;-61
2021/08/13 00:55:25;;;;;;;;;20.00;18.00;;;;;21.34;50.78;99441.50;6040137;28;98167;-59
2021/08/13 00:58:51;;;;;;;;;17.00;16.00;;;;;21.32;50.78;99435.44;6009490;28;96752;-58
2021/08/13 01:02:15;;;;;;;;;18.00;17.00;;;;;21.33;50.75;99442.59;6031015;28;96680;-61
2021/08/13 01:05:22;;;;;;;;;16.00;16.00;;;;;21.33;50.95;99439.84;6040928;28;96543;-58
2021/08/13 01:08:26;;;;;;;;;18.40;17.00;;;;;21.33;50.77;99439.84;6042832;28;97494;-59
2021/08/13 01:11:44;;;;;;;;;21.00;18.00;;;;;21.30;50.97;99435.75;6041146;28;97790;-58
2021/08/13 01:14:58;;;;;;;;;17.00;17.00;;;;;21.28;50.93;99440.69;6043702;28;96834;-59
2021/08/13 01:18:12;;;;;;;;;19.00;17.00;;;;;21.20;51.04;99433.03;6040203;28;97026;-59
2021/08/13 01:21:44;;;;;;;;;15.20;15.20;;;;;21.20;51.17;99433.03;6041155;28;97402;-59
2021/08/13 01:24:54;;;;;;;;;16.33;15.33;;;;;21.16;51.19;99432.75;6042233;28;96733;-59
2021/08/13 01:28:10;;;;;;;;;17.00;16.00;;;;;21.12;51.54;99437.09;6040951;28;96955;-60
2021/08/13 01:31:19;;;;;;;;;16.50;15.25;;;;;20.82;51.52;99385.06;6040502;28;96674;-59
2021/08/13 01:34:26;;;;;;;;;15.00;14.60;;;;;21.13;51.63;99437.94;6041507;28;97129;-57
2021/08/13 01:37:32;;;;;;;;;19.40;17.40;;;;;21.12;51.73;99433.53;6042303;28;96683;-58
2021/08/13 01:40:42;;;;;;;;;16.60;16.00;;;;;21.10;51.86;99436.59;6041149;28;97503;-59
2021/08/13 01:43:48;;;;;;;;;18.50;17.00;;;;;21.07;51.68;99445.34;6041112;28;97435;-59
2021/08/13 01:46:56;;;;;;;;;15.00;15.00;;;;;21.02;51.34;99434.38;6040616;28;96728;-57
2021/08/13 01:50:02;;;;;;;;;17.25;16.25;;;;;21.06;51.64;99442.91;6041686;28;97199;-58
2021/08/13 01:53:07;;;;;;;;;16.60;14.00;;;;;21.00;51.54;99438.50;6040410;28;97190;-60
2021/08/13 01:56:11;;;;;;;;;17.00;16.00;;;;;21.00;51.58;99436.59;6040190;28;97540;-58
2021/08/13 01:59:17;;;;;;;;;16.20;14.80;;;;;20.97;51.91;99444.53;6042393;28;97595;-57
2021/08/13 02:02:20;;;;;;;;;17.00;16.00;;;;;;;;6039699;28;98102;-57
2021/08/13 02:05:29;;;;;;;;;18.40;16.60;;;;;20.97;51.85;99437.13;6042860;28;97641;-57
2021/08/13 02:08:35;;;;;;;;;17.60;17.00;;;;;20.97;51.62;99439.03;6040203;28;97468;-59
2021/08/13 02:11:43;;;;;;;;;21.40;18.80;;;;;20.94;51.63;99434.13;6042613;28;96646;-57
2021/08/13 02:14:50;;;;;;;;;15.75;15.00;;;;;20.92;51.64;99434.41;6044709;28;96807;-59
2021/08/13 02:18:00;;;;;;;;;17.00;16.00;;;;;20.91;51.83;99438.25;6041175;28;96900;-59
2021/08/13 02:21:11;;;;;;;;;19.00;18.75;;;;;20.91;52.30;99434.69;6040420;28;98395;-58
2021/08/13 02:24:17;;;;;;;;;18.75;18.75;;;;;20.86;52.05;99437.44;6039600;28;97564;-59
2021/08/13 02:27:22;;;;;;;;;21.00;19.60;;;;;20.82;52.42;99442.63;6040417;28;96910;-59
2021/08/13 02:30:26;;;;;;;;;18.00;17.00;;;;;20.84;52.56;99448.66;6040284;28;97000;-58
2021/08/13 02:33:29;;;;;;;;;18.00;17.00;;;;;20.88;52.73;99451.66;6040521;28;96627;-59
2021/08/13 02:36:46;;;;;;;;;19.00;17.60;;;;;20.89;52.70;99442.34;6024806;28;97043;-58
2021/08/13 02:39:54;;;;;;;;;22.00;19.00;;;;;20.89;52.04;99439.63;6042869;28;96681;-58
2021/08/13 02:43:16;;;;;;;;;17.00;16.00;;;;;20.83;52.64;99437.97;6045650;28;97122;-58
2021/08/13 02:46:21;;;;;;;;;19.00;17.00;;;;;20.81;52.64;99442.91;6045781;28;96662;-57
2021/08/13 02:49:29;;;;;;;;;16.50;16.00;;;;;20.76;52.81;99438.25;6044810;28;97441;-61
2021/08/13 02:52:43;;;;;;;;;18.00;17.00;;;;;20.71;52.95;99447.31;6045017;28;97715;-58
2021/08/13 02:55:51;;;;;;;;;22.00;19.00;;;;;20.57;52.84;99427.03;6043647;28;96693;-59
2021/08/13 02:58:59;;;;;;;;;21.20;19.80;;;;;20.70;52.89;99434.69;6044467;28;98667;-60
2021/08/13 03:02:04;;;;;;;;;18.60;18.00;;;;;20.60;53.31;99437.44;6050099;28;96933;-60
2021/08/13 03:05:14;;;;;;;;;17.00;16.60;;;;;20.58;53.38;99433.31;6045305;28;97058;-60
2021/08/13 03:08:22;;;;;;;;;17.00;16.75;;;;;20.58;53.02;99425.09;6044378;28;97265;-59
2021/08/13 03:11:27;;;;;;;;;19.00;17.00;;;;;20.58;53.12;99434.13;6043306;28;96561;-60
2021/08/13 03:14:31;;;;;;;;;20.40;19.60;;;;;20.56;53.24;99432.78;6043819;28;97957;-60
2021/08/13 03:17:35;;;;;;;;;20.00;19.00;;;;;20.57;52.97;99431.69;6028307;28;97473;-59
2021/08/13 03:20:41;;;;;;;;;18.40;16.00;;;;;20.62;52.97;99432.50;6043684;28;98009;-60
2021/08/13 03:23:46;;;;;;;;;16.50;15.50;;;;;20.61;53.05;99433.59;6043440;28;98658;-60
2021/08/13 03:26:50;;;;;;;;;17.60;17.60;;;;;20.47;52.89;99407.03;6044758;28;96833;-61
2021/08/13 03:29:55;;;;;;;;;21.40;20.40;;;;;20.61;53.44;99427.31;6035796;28;97427;-59
2021/08/13 03:32:59;;;;;;;;;18.00;17.00;;;;;20.61;53.19;99430.88;6041153;28;97209;-60
2021/08/13 03:36:05;;;;;;;;;17.20;15.20;;;;;20.60;53.55;99429.22;6043648;28;96685;-60
2021/08/13 03:39:15;;;;;;;;;19.80;19.80;;;;;20.62;53.50;99426.22;6043530;28;97112;-61
2021/08/13 03:42:21;;;;;;;;;22.00;20.20;;;;;20.62;53.53;99426.22;6048636;28;97592;-60
2021/08/13 03:45:25;;;;;;;;;21.40;18.60;;;;;20.64;53.35;99430.31;6026909;28;97042;-59
2021/08/13 03:48:28;;;;;;;;;19.60;18.60;;;;;20.70;53.72;99429.22;6027225;28;97339;-60
2021/08/13 03:51:32;;;;;;;;;18.00;17.00;;;;;20.74;53.45;99433.06;6043243;28;96723;-61
2021/08/13 03:54:37;;;;;;;;;18.80;17.80;;;;;20.76;53.26;99441.00;6044456;28;96908;-59
2021/08/13 03:57:41;;;;;;;;;20.00;19.00;;;;;20.80;53.70;99444.84;6044673;28;97483;-59
2021/08/13 04:00:44;;;;;;;;;21.00;19.40;;;;;20.86;53.58;99441.00;6043413;28;96916;-59
2021/08/13 04:03:48;;;;;;;;;21.00;19.00;;;;;20.93;53.36;99443.44;6026269;28;97615;-58
2021/08/13 04:06:53;;;;;;;;;19.50;19.00;;;;;20.98;53.43;99441.53;6014629;28;99518;-60
2021/08/13 04:09:59;;;;;;;;;19.00;18.40;;;;;21.08;53.26;99425.06;6043015;28;97005;-58
2021/08/13 04:13:03;;;;;;;;;20.40;20.00;;;;;21.19;52.75;99434.13;6038350;28;96652;-58
2021/08/13 04:16:12;;;;;;;;;22.00;18.20;;;;;21.25;52.85;99424.78;6041625;28;97587;-60
2021/08/13 04:19:15;;;;;;;;;22.60;21.60;;;;;21.39;52.21;99427.75;6043368;28;97524;-60
2021/08/13 04:22:19;;;;;;;;;21.50;21.00;;;;;21.55;51.43;99418.38;6043680;28;97519;-59
2021/08/13 04:25:24;;;;;;;;;20.80;19.80;;;;;21.71;51.28;99421.88;6026257;28;98414;-60
2021/08/13 04:28:30;;;;;;;;;22.00;21.00;;;;;21.89;51.88;99424.00;6042637;28;97446;-60
2021/08/13 04:31:36;;;;;;;;;21.00;20.80;;;;;22.05;51.71;99436.53;6043369;28;97501;-58
2021/08/13 04:34:41;;;;;;;;;22.00;21.00;;;;;22.22;51.42;99438.94;6043189;28;96725;-60
2021/08/13 04:37:49;;;;;;;;;24.00;22.80;;;;;22.39;51.22;99431.09;6043122;28;98194;-60
2021/08/13 04:40:57;;;;;;;;;25.40;23.00;;;;;22.58;50.63;99434.81;6041771;28;96558;-60
2021/08/13 04:44:00;;;;;;;;;22.60;21.60;;;;;22.68;50.11;99429.22;6042783;28;97237;-59
2021/08/13 04:47:04;;;;;;;;;23.00;22.00;;;;;22.77;49.84;99433.03;6041986;28;97408;-60
2021/08/13 04:50:08;;;;;;;;;22.00;21.00;;;;;22.88;49.59;99434.59;6042935;28;97187;-60
2021/08/13 04:53:12;;;;;;;;;22.40;21.00;;;;;22.96;49.68;99441.41;6027715;28;97547;-58
2021/08/13 04:56:17;;;;;;;;;22.00;21.00;;;;;23.09;49.47;99443.47;6042394;28;96708;-61
2021/08/13 04:59:20;;;;;;;;;23.60;20.60;;;;;23.20;49.70;99449.69;6043145;28;97432;-60
2021/08/13 05:02:30;;;;;;;;;21.60;21.00;;;;;23.29;49.83;99442.44;6042458;28;96758;-59
2021/08/13 05:05:34;;;;;;;;;23.00;21.00;;;;;23.40;49.80;99452.22;6042319;28;96930;-60
2021/08/13 05:08:39;;;;;;;;;22.00;21.50;;;;;23.52;49.53;99452.66;6037236;28;96590;-60
2021/08/13 05:11:44;;;;;;;;;24.33;22.00;;;;;23.63;48.76;99450.63;6042879;28;97476;-59
2021/08/13 05:14:48;;;;;;;;;23.20;22.20;;;;;23.70;48.44;99454.63;6041126;28;97464;-60
2021/08/13 05:17:52;;;;;;;;;26.00;24.40;;;;;23.75;48.30;99453.75;6042505;28;97502;-59
2021/08/13 05:20:59;;;;;;;;;26.25;24.50;;;;;23.88;48.90;99455.00;6042538;28;96578;-60
2021/08/13 05:24:03;;;;;;;;;25.00;23.50;;;;;23.97;48.48;99461.47;6025646;28;98717;-61
2021/08/13 05:27:08;;;;;;;;;26.00;25.00;;;;;24.07;48.88;99469.59;6026938;28;97175;-58
2021/08/13 05:30:12;;;;;;;;;23.50;23.50;;;;;24.16;48.19;99463.16;6042894;28;97529;-58
2021/08/13 05:33:18;;;;;;;;;25.60;23.00;;;;;24.19;47.83;99460.94;6041227;28;97533;-61
2021/08/13 05:36:21;;;;;;;;;23.60;23.00;;;;;24.33;49.06;99462.66;6042414;28;96757;-58
2021/08/13 05:39:25;;;;;;;;;25.50;24.00;;;;;24.54;48.12;99466.72;6042993;28;96695;-60
2021/08/13 05:42:31;;;;;;;;;24.25;24.25;;;;;24.72;47.69;99470.59;6043377;28;96858;-59
2021/08/13 05:45:35;;;;;;;;;25.00;23.60;;;;;24.88;47.32;99469.25;6039329;28;97424;-60
2021/08/13 05:48:39;;;;;;;;;24.40;23.40;;;;;25.03;46.74;99473.69;6040688;28;97659;-60
2021/08/13 05:51:43;;;;;;;;;24.00;23.00;;;;;25.09;46.40;99460.63;6025371;28;96808;-58
2021/08/13 05:54:46;;;;;;;;;24.00;23.00;;;;;25.25;46.27;99467.53;6036134;28;96658;-59
2021/08/13 05:57:52;;;;;;;;;22.60;22.40;;;;;25.22;44.00;99449.59;6023584;28;96854;-60
2021/08/13 06:00:57;;;;;;;;;24.00;21.50;;;;;25.44;44.19;99466.31;6040862;28;96744;-59
2021/08/13 06:04:01;;;;;;;;;22.80;21.80;;;;;25.54;43.47;99468.06;6040740;28;97482;-60
2021/08/13 06:07:05;;;;;;;;;23.00;22.60;;;;;25.63;44.24;99462.66;6042345;28;97749;-59
2021/08/13 06:10:10;;;;;;;;;24.00;23.00;;;;;25.82;44.59;99471.66;6041281;28;96658;-59
2021/08/13 06:13:18;;;;;;;;;22.00;21.00;;;;;25.95;43.54;99475.56;6044530;28;96616;-60
2021/08/13 06:16:23;;;;;;;;;22.60;22.60;;;;;26.04;43.75;99473.72;6044951;28;96837;-58
2021/08/13 06:19:26;;;;;;;;;22.50;20.00;;;;;26.10;42.98;99472.44;6047893;28;96461;-58
2021/08/13 06:22:31;;;;;;;;;23.60;22.00;;;;;26.27;43.62;99470.72;6028157;28;98068;-59
2021/08/13 06:25:34;;;;;;;;;22.50;21.50;;;;;26.50;43.79;99467.97;6045466;28;97435;-60
2021/08/13 06:28:40;;;;;;;;;26.00;23.40;;;;;26.65;43.04;99473.16;6044722;28;96533;-59
2021/08/13 06:31:44;;;;;;;;;24.25;22.25;;;;;26.81;43.25;99479.97;6044723;28;96747;-59
2021/08/13 06:34:48;;;;;;;;;24.40;22.00;;;;;27.00;42.54;99477.03;6028374;28;97164;-58
2021/08/13 06:37:52;;;;;;;;;21.60;21.00;;;;;26.89;42.49;99453.50;6013757;28;99976;-59
2021/08/13 06:40:58;;;;;;;;;26.00;22.00;;;;;27.22;42.54;99487.28;6044441;28;97456;-60
2021/08/13 06:44:04;;;;;;;;;24.80;23.00;;;;;27.34;41.48;99490.25;6021125;28;97060;-59
2021/08/13 06:47:08;;;;;;;;;23.25;22.00;;;;;27.49;41.89;99484.34;6032179;28;97624;-59
2021/08/13 06:50:12;;;;;;;;;23.50;22.00;;;;;27.58;41.14;99483.25;6044253;28;97690;-59
2021/08/13 06:53:21;;;;;;;;;22.50;20.25;;;;;27.70;41.37;99481.84;6026705;28;97669;-58
2021/08/13 06:56:25;;;;;;;;;22.40;21.00;;;;;27.94;41.63;99483.06;6017594;28;98064;-60
2021/08/13 06:59:31;;;;;;;;;22.60;22.00;;;;;28.20;40.88;99474.03;6037600;28;97229;-59
2021/08/13 07:02:36;;;;;;;;;22.60;21.00;;;;;28.34;40.69;99475.50;6028573;28;97647;-59
2021/08/13 07:05:40;;;;;;;;;22.80;21.00;;;;;28.65;40.05;99474.53;6040653;28;97511;-60
2021/08/13 07:08:43;;;;;;;;;23.60;23.00;;;;;28.79;39.97;99466.88;6042451;28;97835;-59
2021/08/13 07:11:47;;;;;;;;;22.25;21.00;;;;;28.91;39.58;99469.00;6026770;28;96706;-58
2021/08/13 07:14:52;;;;;;;;;19.50;18.00;;;;;28.94;39.20;99465.53;6042943;28;97452;-58
2021/08/13 07:17:56;;;;;;;;;19.20;18.60;;;;;29.05;38.73;99470.44;6031409;28;96642;-58
2021/08/13 07:21:07;;;;;;;;;19.40;18.00;;;;;29.18;38.74;99463.03;6044511;28;97446;-57
2021/08/13 07:24:11;;;;;;;;;17.00;16.00;;;;;29.35;38.37;99463.03;6038249;28;98535;-59
2021/08/13 07:27:14;;;;;;;;;15.80;15.80;;;;;29.61;38.14;99471.28;6042810;28;96746;-61
2021/08/13 07:30:19;;;;;;;;;15.25;14.00;;;;;29.67;37.29;99467.97;6042457;28;97429;-59
2021/08/13 07:33:25;;;;;;;;;18.80;16.20;;;;;29.71;36.49;99476.47;6041339;28;97269;-58
2021/08/13 07:36:28;;;;;;;;;18.60;17.00;;;;;29.84;37.37;99478.22;6042365;28;97470;-59
2021/08/13 07:39:32;;;;;;;;;18.50;17.00;;;;;29.99;37.40;99483.22;6018169;28;97587;-57
2021/08/13 07:42:37;;;;;;;;;15.20;14.80;;;;;30.25;36.83;99476.69;6017420;29;98258;-59
2021/08/13 07:45:43;;;;;;;;;16.00;15.00;;;;;30.36;36.13;99469.56;6013262;29;97769;-59
2021/08/13 07:48:47;;;;;;;;;17.00;16.00;;;;;30.53;36.53;99470.28;6014208;29;96712;-60
2021/08/13 07:51:51;;;;;;;;;15.00;14.00;;;;;30.67;35.78;99464.44;6030764;28;97284;-61
2021/08/13 07:54:54;;;;;;;;;17.00;16.00;;;;;30.64;36.37;99454.00;6015759;28;96818;-57
2021/08/13 07:58:00;;;;;;;;;17.00;15.75;;;;;30.91;36.75;99467.31;6023695;28;97460;-60
2021/08/13 08:01:04;;;;;;;;;16.00;16.00;;;;;31.23;35.26;99464.88;6032827;28;97261;-60
2021/08/13 08:04:08;;;;;;;;;16.00;16.00;;;;;31.46;35.45;99460.53;6017497;28;98071;-59
2021/08/13 08:07:15;;;;;;;;;19.40;16.60;;;;;31.52;33.27;99467.50;6017384;29;98171;-59
2021/08/13 08:10:18;;;;;;;;;16.00;15.00;;;;;31.57;34.35;99472.09;6018491;28;96937;-58
2021/08/13 08:13:21;;;;;;;;;16.00;15.75;;;;;31.75;35.26;99477.09;6016240;29;97485;-59
2021/08/13 08:16:26;;;;;;;;;14.60;14.00;;;;;31.80;33.52;99471.28;6016994;29;97480;-58
2021/08/13 08:19:29;;;;;;;;;15.00;15.00;;;;;31.91;33.99;99473.63;6017004;29;97490;-57
2021/08/13 08:22:33;;;;;;;;;16.00;14.00;;;;;32.10;33.78;99468.25;6017947;28;97506;-59
2021/08/13 08:25:36;;;;;;;;;15.00;14.00;;;;;32.43;34.33;99468.09;6016384;28;96910;-59
2021/08/13 08:28:44;;;;;;;;;15.00;14.00;;;;;32.54;33.20;99472.03;6017121;29;97079;-58
2021/08/13 08:31:49;;;;;;;;;16.00;14.00;;;;;32.76;33.56;99470.69;6017517;28;98800;-60
2021/08/13 08:34:52;;;;;;;;;14.60;13.60;;;;;32.81;33.33;99470.44;6016597;28;98335;-58
2021/08/13 08:37:57;;;;;;;;;15.80;15.00;;;;;32.85;32.81;99474.97;6019876;28;96834;-59
2021/08/13 08:41:03;;;;;;;;;13.00;12.00;;;;;32.92;32.14;99479.94;6040920;28;97046;-58
2021/08/13 08:44:07;;;;;;;;;14.25;13.00;;;;;33.09;33.06;99474.03;6042982;28;96639;-59
2021/08/13 08:47:12;;;;;;;;;14.40;13.40;;;;;33.37;33.01;99476.84;6040151;28;98054;-59
2021/08/13 08:50:16;;;;;;;;;13.00;13.00;;;;;33.66;33.09;99481.19;6039804;28;97075;-60
2021/08/13 08:53:24;;;;;;;;;14.00;14.00;;;;;33.82;32.75;99480.00;6037025;28;97005;-59
2021/08/13 08:56:28;;;;;;;;;13.00;12.20;;;;;33.96;32.15;99485.16;6041777;28;96638;-58
2021/08/13 08:59:32;;;;;;;;;12.50;12.00;;;;;34.12;30.50;99485.13;6038282;28;97858;-59
2021/08/13 09:02:42;;;;;;;;;11.80;11.80;;;;;34.33;30.74;99483.66;6041916;28;97678;-59
2021/08/13 09:05:46;;;;;;;;;15.00;13.00;;;;;34.47;30.24;99487.94;6042371;28;97265;-60
2021/08/13 09:08:49;;;;;;;;;14.00;13.40;;;;;34.58;30.95;99480.59;6042338;28;96728;-60
2021/08/13 09:11:55;;;;;;;;;12.00;12.00;;;;;34.53;30.43;99478.09;6042237;28;97499;-60
2021/08/13 09:14:58;;;;;;;;;14.00;13.00;;;;;34.62;30.13;99485.09;6043410;28;96762;-58
2021/08/13 09:18:14;;;;;;;;;10.00;10.00;;;;;34.40;27.61;99482.22;6043187;28;97543;-58
2021/08/13 09:21:21;;;;;;;;;9.00;9.00;;;;;33.97;28.18;99486.75;6041760;28;97495;-59
2021/08/13 09:24:24;;;;;;;;;11.00;10.00;;;;;33.94;28.11;99481.91;6042260;28;96806;-59
2021/08/13 09:27:30;;;;;;;;;9.60;9.00;;;;;34.20;28.37;99484.16;6042241;28;97521;-59
2021/08/13 09:31:12;;;;;;;;;9.20;9.00;;;;;34.46;28.58;99475.94;6040153;28;96735;-60
2021/08/13 09:34:17;;;;;;;;;11.00;9.60;;;;;34.86;27.54;99480.41;6041836;28;96697;-58
2021/08/13 09:37:21;;;;;;;;;10.00;9.00;;;;;35.02;27.61;99486.75;6034244;28;96685;-59
2021/08/13 09:40:24;;;;;;;;;10.00;10.00;;;;;35.11;25.81;99490.94;6048400;28;98124;-59
2021/08/13 09:43:27;;;;;;;;;8.00;8.00;;;;;35.33;26.19;99480.19;6041766;28;96620;-59
2021/08/13 09:46:32;;;;;;;;;10.00;10.00;;;;;35.76;25.82;99491.00;6039878;28;98815;-61
2021/08/13 09:49:39;;;;;;;;;9.40;8.60;;;;;35.96;25.96;99492.53;6044831;28;98018;-59
2021/08/13 09:53:03;;;;;;;;;10.00;9.40;;;;;36.07;25.43;99491.91;6047684;28;97597;-60
2021/08/13 09:56:25;;;;;;;;;8.00;8.00;;;;;36.12;24.77;99485.97;6050089;28;97561;-59
2021/08/13 09:59:28;;;;;;;;;9.00;8.60;;;;;36.05;25.35;99484.66;6049619;28;99125;-58
2021/08/13 10:02:35;;;;;;;;;10.60;10.20;;;;;35.81;25.70;99482.28;6050162;28;96694;-59
2021/08/13 10:05:39;;;;;;;;;10.00;9.40;;;;;36.04;26.26;99490.66;6050234;28;97359;-60
2021/08/13 10:08:44;;;;;;;;;9.00;8.80;;;;;36.23;25.61;99478.53;6049462;28;97571;-58
2021/08/13 10:11:58;;;;;;;;;8.80;8.80;;;;;36.32;25.63;99485.47;6048965;28;97640;-58
2021/08/13 10:15:01;;;;;;;;;9.00;9.00;;;;;36.44;24.98;99485.28;6033559;28;96659;-58
2021/08/13 10:18:06;;;;;;;;;11.00;9.60;;;;;36.57;25.61;99473.78;6029356;28;100122;-60
2021/08/13 10:21:11;;;;;;;;;9.00;8.00;;;;;36.52;24.39;99471.31;6033374;28;97557;-58
2021/08/13 10:24:15;;;;;;;;;10.75;9.00;;;;;36.23;24.33;99481.34;6048986;28;96673;-60
2021/08/13 10:27:20;;;;;;;;;9.60;9.00;;;;;36.08;24.32;99462.63;6042105;28;97941;-58
2021/08/13 10:30:29;;;;;;;;;9.00;9.00;;;;;36.31;25.45;99471.84;6041229;28;97172;-59
2021/08/13 10:33:33;;;;;;;;;9.00;9.00;;;;;36.50;24.33;99476.50;6047615;28;97831;-61
2021/08/13 10:36:40;;;;;;;;;11.00;11.00;;;;;36.54;24.43;99480.19;6047856;28;98128;-62
2021/08/13 10:39:45;;;;;;;;;10.00;9.00;;;;;36.59;25.38;99477.03;6028367;28;96848;-58
2021/08/13 10:42:52;;;;;;;;;10.00;9.40;;;;;36.28;24.88;99448.13;6047470;28;96634;-60
2021/08/13 10:45:59;;;;;;;;;11.00;10.00;;;;;35.77;25.31;99456.16;6035706;28;97101;-60
2021/08/13 10:49:09;;;;;;;;;10.00;10.00;;;;;35.65;25.46;99461.91;6034337;28;97621;-59
2021/08/13 10:52:15;;;;;;;;;11.67;10.00;;;;;35.56;25.43;99461.38;6019472;28;97286;-58
2021/08/13 10:55:42;;;;;;;;;11.75;10.75;;;;;35.51;25.14;99461.69;6033477;28;98629;-57
2021/08/13 10:58:48;;;;;;;;;11.00;9.00;;;;;35.74;26.73;99454.09;6045462;28;97526;-59
2021/08/13 11:02:21;;;;;;;;;12.00;11.00;;;;;35.88;25.16;99454.31;6039824;28;96592;-60
2021/08/13 11:05:53;;;;;;;;;9.20;9.20;;;;;36.08;25.93;99440.16;6043293;28;97189;-59
2021/08/13 11:08:59;;;;;;;;;10.00;9.00;;;;;36.28;24.71;99450.94;6042366;28;96811;-57
2021/08/13 11:12:23;;;;;;;;;8.00;8.00;;;;;36.40;25.32;99452.72;6040284;28;96712;-57
2021/08/13 11:15:35;;;;;;;;;9.60;8.60;;;;;36.50;24.00;99449.25;6036996;28;99788;-60
2021/08/13 11:18:39;;;;;;;;;10.00;9.00;;;;;36.46;24.02;99439.94;6041839;28;97489;-58
2021/08/13 11:21:48;;;;;;;;;7.60;7.60;;;;;36.54;23.82;99441.66;6042115;28;97990;-60
2021/08/13 11:24:54;;;;;;;;;9.00;8.80;;;;;36.44;23.87;99439.53;6042360;28;96507;-60
2021/08/13 11:28:18;;;;;;;;;9.00;9.00;;;;;36.51;24.51;99436.78;6040998;28;96760;-59
2021/08/13 11:31:50;;;;;;;;;10.00;10.00;;;;;36.35;24.96;99433.38;6041042;28;97562;-59
2021/08/13 11:35:01;;;;;;;;;8.00;8.00;;;;;36.39;25.00;99431.44;6026356;28;96665;-58
2021/08/13 11:38:06;;;;;;;;;9.00;8.00;;;;;36.24;24.40;99426.81;6037968;28;96774;-60
2021/08/13 11:41:25;;;;;;;;;7.00;7.00;;;;;36.23;25.38;99417.56;6028900;28;96945;-57
2021/08/13 11:44:38;;;;;;;;;10.00;9.20;;;;;36.33;25.34;99419.72;6037686;28;97635;-59
2021/08/13 11:47:47;;;;;;;;;10.00;10.00;;;;;36.32;25.11;99417.28;6016802;28;97438;-59
2021/08/13 11:50:52;;;;;;;;;9.40;9.00;;;;;36.41;25.78;99415.00;6035909;28;96791;-59
2021/08/13 11:53:56;;;;;;;;;9.00;8.40;;;;;36.57;25.49;99412.78;6040404;28;97766;-58
2021/08/13 11:57:14;;;;;;;;;8.00;7.50;;;;;36.65;24.66;99427.78;6037766;28;98057;-57
2021/08/13 12:00:18;;;;;;;;;9.00;9.00;;;;;36.71;24.07;99418.63;6032271;28;97392;-59
2021/08/13 12:03:24;;;;;;;;;9.20;9.00;;;;;37.00;24.30;99418.94;6029562;28;97473;-60
2021/08/13 12:06:28;;;;;;;;;9.00;8.40;;;;;37.08;24.23;99415.84;6022341;28;97547;-59
2021/08/13 12:09:33;;;;;;;;;8.60;8.00;;;;;37.33;24.35;99413.28;6043195;28;97255;-61
2021/08/13 12:12:39;;;;;;;;;9.00;8.00;;;;;37.14;23.54;99399.44;6025653;28;98690;-60
2021/08/13 12:15:44;;;;;;;;;7.00;7.00;;;;;36.98;24.15;99410.91;6039427;28;97486;-60
2021/08/13 12:18:53;;;;;;;;;9.00;9.00;;;;;36.96;24.15;99407.66;6040110;28;96636;-57
2021/08/13 12:22:03;;;;;;;;;8.80;8.80;;;;;36.82;24.39;99404.69;6040754;28;96806;-58
2021/08/13 12:25:10;;;;;;;;;8.00;8.00;;;;;36.79;24.26;99405.47;6041464;28;97261;-57
2021/08/13 12:28:16;;;;;;;;;9.50;8.50;;;;;36.68;24.30;99405.34;6041064;28;97142;-58
2021/08/13 12:31:19;;;;;;;;;10.20;10.00;;;;;36.38;24.17;99398.91;6025239;28;96738;-58
2021/08/13 12:34:25;;;;;;;;;7.00;7.00;;;;;36.43;24.28;99396.59;6041169;28;97555;-57
2021/08/13 12:37:29;;;;;;;;;9.40;9.00;;;;;36.66;25.95;99392.84;6042325;28;96700;-59
2021/08/13 12:40:45;;;;;;;;;7.25;7.25;;;;;36.52;24.29;99393.47;6026788;28;96678;-58
2021/08/13 12:43:49;;;;;;;;;10.00;9.00;;;;;36.60;24.63;99395.19;6039364;28;97981;-59
2021/08/13 12:46:54;;;;;;;;;8.00;8.00;;;;;36.55;23.61;99392.72;6042042;28;97638;-58
2021/08/13 12:49:59;;;;;;;;;8.00;7.00;;;;;36.60;25.11;99374.72;6038141;28;96647;-58
2021/08/13 12:53:05;;;;;;;;;9.00;8.00;;;;;36.78;24.28;99375.75;6043044;28;97499;-60
2021/08/13 12:56:18;;;;;;;;;9.00;8.25;;;;;36.99;23.42;99372.38;6032978;28;96860;-58
2021/08/13 12:59:32;;;;;;;;;9.00;9.00;;;;;37.04;23.87;99364.38;6031114;28;96912;-60
2021/08/13 13:02:36;;;;;;;;;7.00;7.00;;;;;37.04;24.00;99372.00;6041546;28;97299;-59
2021/08/13 13:06:08;;;;;;;;;8.00;7.00;;;;;37.17;24.97;99365.75;6033040;28;98055;-60
2021/08/13 13:09:13;;;;;;;;;8.00;8.00;;;;;37.20;24.07;99364.13;6040088;28;97799;-60
2021/08/13 13:12:21;;;;;;;;;9.00;8.60;;;;;37.17;23.77;99362.94;6017420;29;96703;-59
2021/08/13 13:15:27;;;;;;;;;8.60;7.80;;;;;37.22;23.59;99367.38;6033415;28;97183;-59
2021/08/13 13:18:35;;;;;;;;;10.00;9.00;;;;;37.00;24.03;99368.34;6035402;28;97666;-60
2021/08/13 13:21:40;;;;;;;;;8.00;8.00;;;;;37.01;24.01;99358.72;6033788;28;97420;-58
2021/08/13 13:24:44;;;;;;;;;8.80;8.00;;;;;37.14;25.46;99358.06;6038356;28;97909;-60
2021/08/13 13:28:03;;;;;;;;;8.00;8.00;;;;;37.13;23.69;99358.47;6023672;28;96734;-60
2021/08/13 13:31:26;;;;;;;;;10.00;8.50;;;;;37.14;25.02;99352.44;6044592;28;97699;-56
2021/08/13 13:34:58;;;;;;;;;8.00;8.00;;;;;37.28;24.66;99348.97;6056445;28;97445;-56
2021/08/13 13:38:24;;;;;;;;;11.00;10.00;;;;;37.20;24.54;99341.66;6041419;28;97053;-57
2021/08/13 13:41:29;;;;;;;;;10.00;8.00;;;;;37.14;24.95;99343.22;6028264;28;96502;-57
2021/08/13 13:44:32;;;;;;;;;8.80;8.00;;;;;36.79;24.95;99333.22;6035233;28;96652;-57
2021/08/13 13:47:40;;;;;;;;;10.00;10.00;;;;;36.56;25.20;99346.56;6041476;28;97498;-58
2021/08/13 13:50:47;;;;;;;;;10.00;10.00;;;;;36.46;25.94;99348.06;6039413;28;97450;-58
2021/08/13 13:53:52;;;;;;;;;11.80;10.80;;;;;36.38;25.65;99332.34;6039541;28;96833;-58
2021/08/13 13:56:56;;;;;;;;;10.00;8.20;;;;;36.25;25.93;99324.56;6050325;28;96586;-57
2021/08/13 13:59:59;;;;;;;;;11.00;10.00;;;;;36.22;26.62;99339.34;6038673;28;96750;-58
2021/08/13 14:03:03;;;;;;;;;9.00;8.00;;;;;36.33;25.65;99338.28;6038130;28;97600;-58
2021/08/13 14:06:07;;;;;;;;;9.80;9.00;;;;;36.46;26.44;99327.59;6031297;28;97808;-57
2021/08/13 14:09:11;;;;;;;;;9.00;8.40;;;;;36.54;26.13;99315.25;6039136;28;97057;-60
2021/08/13 14:12:15;;;;;;;;;9.00;8.80;;;;;36.48;26.40;99322.41;6039573;28;97257;-58
2021/08/13 14:15:20;;;;;;;;;10.50;9.50;;;;;36.27;26.15;99319.34;6038467;28;97564;-58
2021/08/13 14:18:24;;;;;;;;;10.00;10.00;;;;;36.24;27.26;99325.72;6038765;28;97690;-59
2021/08/13 14:21:28;;;;;;;;;11.00;10.00;;;;;36.13;26.46;99313.53;6031047;28;97400;-58
2021/08/13 14:24:34;;;;;;;;;11.00;10.00;;;;;35.95;26.41;99311.31;6027272;28;96742;-60
2021/08/13 14:27:37;;;;;;;;;10.60;10.00;;;;;35.81;26.96;99311.13;6046942;28;97519;-59